Time;durP1;ratioP1;P1;durP2;ratioP2;P2;SDS_P1;SDS_P2;PMS_P1;PMS_P2;Temp;Humidity;BMP_temperature;BMP_pressure;BME280_temperature;BME280_humidity;BME280_pressure;Samples;Min_cycle;Max_cycle;Signal;HPM_P1;HPM_P2
2023/03/04 00:02:29;;;;;;;;;;;;;;;;;;5056388;28;19931;-71
2023/03/04 00:05:16;;;;;;;;;;;;;;;;;;5049223;28;19927;-71
2023/03/04 00:08:02;;;;;;;;;;;;;;;;;;5040676;28;19917;-71
2023/03/04 00:10:49;;;;;;;;;;;;;;;;;;5050008;28;19932;-71
2023/03/04 00:13:35;;;;;;;;;;;;;;;;;;5047228;28;20300;-71
2023/03/04 00:16:22;;;;;;;;;;;;;;;;;;5047955;28;19917;-71
2023/03/04 00:19:08;;;;;;;;;;;;;;;;;;5032484;28;19921;-71
2023/03/04 00:21:55;;;;;;;;;;;;;;;;;;5031143;28;19925;-72
2023/03/04 00:24:41;;;;;;;;;;;;;;;;;;5028979;28;19917;-72
2023/03/04 00:27:27;;;;;;;;;;;;;;;;;;5029575;28;19921;-72
2023/03/04 00:30:14;;;;;;;;;;;;;;;;;;5034007;28;19936;-72
2023/03/04 00:33:00;;;;;;;;;;;;;;;;;;5031308;28;19921;-72
2023/03/04 00:35:47;;;;;;;;;;;;;;;;;;5029969;28;20369;-72
2023/03/04 00:38:33;;;;;;;;;;;;;;;;;;5020993;28;19917;-71
2023/03/04 00:41:20;;;;;;;;;;;;;;;;;;5042213;28;19929;-71
2023/03/04 00:44:06;;;;;;;;;;;;;;;;;;5040817;28;19929;-72
2023/03/04 00:46:53;;;;;;;;;;;;;;;;;;5042038;28;19913;-72
2023/03/04 00:49:39;;;;;;;;;;;;;;;;;;5034352;28;19917;-71
2023/03/04 00:52:26;;;;;;;;;;;;;;;;;;5042232;28;19917;-71
2023/03/04 00:55:12;;;;;;;;;;;;;;;;;;5040021;28;20384;-71
2023/03/04 00:57:59;;;;;;;;;;;;;;;;;;5029037;28;19917;-71
2023/03/04 01:00:45;;;;;;;;;;;;;;;;;;5028739;28;19929;-71
2023/03/04 01:03:32;;;;;;;;;;;;;;;;;;5034351;28;19913;-71
2023/03/04 01:06:18;;;;;;;;;;;;;;;;;;5043800;28;20430;-71
2023/03/04 01:09:05;;;;;;;;;;;;;;;;;;5046190;28;19913;-71
2023/03/04 01:11:51;;;;;;;;;;;;;;;;;;5031105;28;19924;-71
2023/03/04 01:14:38;;;;;;;;;;;;;;;;;;5057697;28;19932;-71
2023/03/04 01:17:24;;;;;;;;;;;;;;;;;;5061832;28;19912;-70
2023/03/04 01:20:11;;;;;;;;;;;;;;;;;;5046169;28;20408;-72
2023/03/04 01:22:57;;;;;;;;;;;;;;;;;;5050051;28;20015;-71
2023/03/04 01:25:44;;;;;;;;;;;;;;;;;;5028183;28;19927;-71
2023/03/04 01:28:34;;;;;;;;;;;;;;;;;;5057761;28;19913;-71
2023/03/04 01:31:21;;;;;;;;;;;;;;;;;;5052008;28;19932;-71
2023/03/04 01:34:08;;;;;;;;;;;;;;;;;;5045730;28;19914;-72
2023/03/04 01:36:55;;;;;;;;;;;;;;;;;;5056792;28;19918;-72
2023/03/04 01:39:41;;;;;;;;;;;;;;;;;;5061506;28;20397;-72
2023/03/04 01:42:28;;;;;;;;;;;;;;;;;;5042218;28;19936;-71
2023/03/04 01:45:14;;;;;;;;;;;;;;;;;;5057190;28;20452;-71
2023/03/04 01:48:01;;;;;;;;;;;;;;;;;;5050824;28;19923;-71
2023/03/04 01:50:47;;;;;;;;;;;;;;;;;;5050648;28;19932;-71
2023/03/04 01:53:34;;;;;;;;;;;;;;;;;;5058131;28;19942;-72
2023/03/04 01:56:20;;;;;;;;;;;;;;;;;;5042558;28;19920;-71
2023/03/04 01:59:06;;;;;;;;;;;;;;;;;;5037744;28;19932;-72
2023/03/04 02:01:53;;;;;;;;;;;;;;;;;;5026034;28;20407;-71
2023/03/04 02:04:39;;;;;;;;;;;;;;;;;;5050527;28;19931;-71
2023/03/04 02:07:26;;;;;;;;;;;;;;;;;;5050959;28;19940;-71
2023/03/04 02:10:12;;;;;;;;;;;;;;;;;;5046821;28;19916;-71
2023/03/04 02:12:59;;;;;;;;;;;;;;;;;;5043093;28;19947;-72
2023/03/04 02:15:45;;;;;;;;;;;;;;;;;;5042051;28;20406;-71
2023/03/04 02:18:32;;;;;;;;;;;;;;;;;;5058212;28;19938;-71
2023/03/04 02:21:18;;;;;;;;;;;;;;;;;;5056953;28;19924;-71
2023/03/04 02:24:05;;;;;;;;;;;;;;;;;;5054855;28;19925;-72
2023/03/04 02:26:51;;;;;;;;;;;;;;;;;;5072297;28;19912;-72
2023/03/04 02:29:38;;;;;;;;;;;;;;;;;;5066430;28;19925;-71
2023/03/04 02:32:24;;;;;;;;;;;;;;;;;;5064244;28;19947;-71
2023/03/04 02:35:11;;;;;;;;;;;;;;;;;;5055777;28;19921;-71
2023/03/04 02:37:57;;;;;;;;;;;;;;;;;;5051247;28;19920;-72
2023/03/04 02:40:44;;;;;;;;;;;;;;;;;;5047832;28;20283;-72
2023/03/04 02:43:30;;;;;;;;;;;;;;;;;;5061241;28;19928;-72
2023/03/04 02:46:16;;;;;;;;;;;;;;;;;;5055643;28;20297;-72
2023/03/04 02:49:03;;;;;;;;;;;;;;;;;;5053847;28;19928;-71
2023/03/04 02:51:49;;;;;;;;;;;;;;;;;;5061786;28;20312;-72
2023/03/04 02:54:36;;;;;;;;;;;;;;;;;;5064817;28;19927;-71
2023/03/04 02:57:22;;;;;;;;;;;;;;;;;;5048416;28;20411;-71
2023/03/04 03:00:09;;;;;;;;;;;;;;;;;;5048933;28;19939;-71
2023/03/04 03:02:56;;;;;;;;;;;;;;;;;;5052919;28;19924;-72
2023/03/04 03:05:42;;;;;;;;;;;;;;;;;;5053372;28;19916;-71
2023/03/04 03:08:29;;;;;;;;;;;;;;;;;;5059485;28;19916;-71
2023/03/04 03:11:15;;;;;;;;;;;;;;;;;;5064909;28;19935;-71
2023/03/04 03:14:02;;;;;;;;;;;;;;;;;;5065892;28;19937;-71
2023/03/04 03:16:48;;;;;;;;;;;;;;;;;;5056649;28;19921;-71
2023/03/04 03:19:35;;;;;;;;;;;;;;;;;;5065038;28;19923;-71
2023/03/04 03:22:21;;;;;;;;;;;;;;;;;;5064885;28;19939;-72
2023/03/04 03:25:08;;;;;;;;;;;;;;;;;;5066239;28;20296;-71
2023/03/04 03:27:54;;;;;;;;;;;;;;;;;;5069022;28;19979;-72
2023/03/04 03:30:40;;;;;;;;;;;;;;;;;;5066302;28;19928;-70
2023/03/04 03:33:27;;;;;;;;;;;;;;;;;;5055265;28;19917;-71
2023/03/04 03:36:13;;;;;;;;;;;;;;;;;;5047173;28;21146;-72
2023/03/04 03:39:00;;;;;;;;;;;;;;;;;;5059764;28;19920;-72
2023/03/04 03:41:47;;;;;;;;;;;;;;;;;;5052107;28;19935;-71
2023/03/04 03:44:33;;;;;;;;;;;;;;;;;;5056915;28;20497;-72
2023/03/04 03:47:19;;;;;;;;;;;;;;;;;;5055881;28;19913;-71
2023/03/04 03:50:06;;;;;;;;;;;;;;;;;;5059849;28;20371;-72
2023/03/04 03:52:52;;;;;;;;;;;;;;;;;;5051881;28;19921;-71
2023/03/04 03:55:39;;;;;;;;;;;;;;;;;;5062705;28;19917;-71
2023/03/04 03:58:25;;;;;;;;;;;;;;;;;;5060585;28;19917;-71
2023/03/04 04:01:12;;;;;;;;;;;;;;;;;;5065962;28;19927;-71
2023/03/04 04:03:58;;;;;;;;;;;;;;;;;;5057415;28;19929;-71
2023/03/04 04:06:45;;;;;;;;;;;;;;;;;;5035773;28;19917;-71
2023/03/04 04:09:31;;;;;;;;;;;;;;;;;;5060669;28;19913;-71
2023/03/04 04:12:18;;;;;;;;;;;;;;;;;;5063413;28;19938;-71
2023/03/04 04:15:04;;;;;;;;;;;;;;;;;;5061229;28;19932;-71
2023/03/04 04:17:51;;;;;;;;;;;;;;;;;;5046094;28;20391;-72
2023/03/04 04:20:39;;;;;;;;;;;;;;;;;;5042684;28;25208;-71
2023/03/04 04:23:26;;;;;;;;;;;;;;;;;;5057500;28;20485;-71
2023/03/04 04:26:12;;;;;;;;;;;;;;;;;;5066522;28;19962;-72
2023/03/04 04:28:58;;;;;;;;;;;;;;;;;;5052499;28;19916;-72
2023/03/04 04:31:45;;;;;;;;;;;;;;;;;;5049573;28;19916;-72
2023/03/04 04:34:31;;;;;;;;;;;;;;;;;;5052893;28;19916;-72
2023/03/04 04:37:18;;;;;;;;;;;;;;;;;;5056998;28;19926;-72
2023/03/04 04:40:05;;;;;;;;;;;;;;;;;;5051708;28;19927;-72
2023/03/04 04:42:51;;;;;;;;;;;;;;;;;;5045955;28;19925;-72
2023/03/04 04:45:37;;;;;;;;;;;;;;;;;;5051729;28;20215;-72
2023/03/04 04:48:24;;;;;;;;;;;;;;;;;;5035276;28;20261;-72
2023/03/04 04:51:10;;;;;;;;;;;;;;;;;;5059910;28;19916;-72
2023/03/04 04:53:57;;;;;;;;;;;;;;;;;;5041804;28;19932;-72
2023/03/04 04:56:43;;;;;;;;;;;;;;;;;;5058337;28;19916;-72
2023/03/04 04:59:30;;;;;;;;;;;;;;;;;;5048242;28;19921;-71
2023/03/04 05:02:16;;;;;;;;;;;;;;;;;;5061089;28;19920;-72
2023/03/04 05:05:03;;;;;;;;;;;;;;;;;;5050819;28;20297;-72
2023/03/04 05:07:49;;;;;;;;;;;;;;;;;;5055137;28;19921;-72
2023/03/04 05:10:36;;;;;;;;;;;;;;;;;;5057237;28;19924;-72
2023/03/04 05:13:23;;;;;;;;;;;;;;;;;;5059697;28;19917;-72
2023/03/04 05:16:09;;;;;;;;;;;;;;;;;;5056871;28;19928;-70
2023/03/04 05:18:56;;;;;;;;;;;;;;;;;;5056034;28;19916;-72
2023/03/04 05:21:42;;;;;;;;;;;;;;;;;;5066138;28;19921;-71
2023/03/04 05:24:29;;;;;;;;;;;;;;;;;;5063110;28;19926;-71
2023/03/04 05:27:15;;;;;;;;;;;;;;;;;;5061671;28;20265;-72
2023/03/04 05:30:02;;;;;;;;;;;;;;;;;;5071225;28;19982;-72
2023/03/04 05:32:48;;;;;;;;;;;;;;;;;;5060077;28;19916;-71
2023/03/04 05:35:35;;;;;;;;;;;;;;;;;;5047082;28;19954;-72
2023/03/04 05:38:21;;;;;;;;;;;;;;;;;;5054652;28;19923;-71
2023/03/04 05:41:08;;;;;;;;;;;;;;;;;;5073309;28;19939;-71
2023/03/04 05:43:55;;;;;;;;;;;;;;;;;;5072022;28;20443;-72
2023/03/04 05:46:41;;;;;;;;;;;;;;;;;;5063499;28;19975;-71
2023/03/04 05:49:28;;;;;;;;;;;;;;;;;;5061618;28;20015;-71
2023/03/04 05:52:14;;;;;;;;;;;;;;;;;;5061581;28;19931;-71
2023/03/04 05:55:01;;;;;;;;;;;;;;;;;;5065171;28;20376;-72
2023/03/04 05:57:47;;;;;;;;;;;;;;;;;;5066641;28;19927;-71
2023/03/04 06:00:34;;;;;;;;;;;;;;;;;;5062153;28;19920;-71
2023/03/04 06:03:20;;;;;;;;;;;;;;;;;;5059458;28;19925;-71
2023/03/04 06:06:07;;;;;;;;;;;;;;;;;;5064270;28;19920;-71
2023/03/04 06:08:53;;;;;;;;;;;;;;;;;;5055735;28;19913;-71
2023/03/04 06:11:40;;;;;;;;;;;;;;;;;;5066253;28;19920;-71
2023/03/04 06:14:26;;;;;;;;;;;;;;;;;;5059219;28;19955;-71
2023/03/04 06:17:13;;;;;;;;;;;;;;;;;;5049120;28;19923;-71
2023/03/04 06:19:59;;;;;;;;;;;;;;;;;;5063334;28;19930;-72
2023/03/04 06:22:46;;;;;;;;;;;;;;;;;;5069874;28;20245;-71
2023/03/04 06:25:32;;;;;;;;;;;;;;;;;;5060359;28;19921;-72
2023/03/04 06:28:19;;;;;;;;;;;;;;;;;;5065205;28;19924;-71
2023/03/04 06:31:05;;;;;;;;;;;;;;;;;;5057108;28;20284;-72
2023/03/04 06:33:52;;;;;;;;;;;;;;;;;;5059011;28;19921;-71
2023/03/04 06:36:38;;;;;;;;;;;;;;;;;;5067250;28;20260;-71
2023/03/04 06:39:24;;;;;;;;;;;;;;;;;;5062506;28;19924;-71
2023/03/04 06:42:11;;;;;;;;;;;;;;;;;;5062426;28;19924;-72
2023/03/04 06:44:57;;;;;;;;;;;;;;;;;;5059921;28;19923;-72
2023/03/04 06:47:44;;;;;;;;;;;;;;;;;;5053982;28;20395;-72
2023/03/04 06:50:30;;;;;;;;;;;;;;;;;;5069279;28;19923;-71
2023/03/04 06:53:17;;;;;;;;;;;;;;;;;;5056633;28;20268;-72
2023/03/04 06:56:03;;;;;;;;;;;;;;;;;;5058042;28;19920;-71
2023/03/04 06:58:50;;;;;;;;;;;;;;;;;;5056692;28;19938;-71
2023/03/04 07:01:37;;;;;;;;;;;;;;;;;;5040406;28;19931;-72
2023/03/04 07:04:23;;;;;;;;;;;;;;;;;;5056225;28;20359;-74
2023/03/04 07:07:10;;;;;;;;;;;;;;;;;;5066462;28;19916;-75
2023/03/04 07:09:56;;;;;;;;;;;;;;;;;;5070141;28;20302;-75
2023/03/04 07:12:43;;;;;;;;;;;;;;;;;;5054817;28;19923;-78
2023/03/04 07:15:29;;;;;;;;;;;;;;;;;;5053975;28;19933;-75
2023/03/04 07:18:16;;;;;;;;;;;;;;;;;;5057341;28;19923;-76
2023/03/04 07:21:02;;;;;;;;;;;;;;;;;;5063280;28;19916;-78
2023/03/04 07:23:49;;;;;;;;;;;;;;;;;;5068284;28;20128;-77
2023/03/04 07:26:37;;;;;;;;;;;;;;;;;;5048315;28;19927;-77
2023/03/04 07:29:23;;;;;;;;;;;;;;;;;;5072554;28;19924;-76
2023/03/04 07:32:10;;;;;;;;;;;;;;;;;;5062293;28;20429;-76
2023/03/04 07:34:56;;;;;;;;;;;;;;;;;;5040520;28;19925;-77
2023/03/04 07:37:42;;;;;;;;;;;;;;;;;;5063370;28;19917;-76
2023/03/04 07:40:29;;;;;;;;;;;;;;;;;;5049587;28;19920;-76
2023/03/04 07:43:15;;;;;;;;;;;;;;;;;;5051268;28;20248;-77
2023/03/04 07:46:02;;;;;;;;;;;;;;;;;;5042782;28;19927;-75
2023/03/04 07:48:48;;;;;;;;;;;;;;;;;;5053998;28;19933;-75
2023/03/04 07:51:36;;;;;;;;;;;;;;;;;;5050269;28;19927;-73
2023/03/04 07:54:22;;;;;;;;;;;;;;;;;;5056651;28;19924;-74
2023/03/04 07:57:08;;;;;;;;;;;;;;;;;;5054641;28;19920;-75
2023/03/04 07:59:55;;;;;;;;;;;;;;;;;;5060510;28;20483;-75
2023/03/04 08:02:41;;;;;;;;;;;;;;;;;;5060729;28;19932;-75
2023/03/04 08:05:28;;;;;;;;;;;;;;;;;;5052108;28;19931;-75
2023/03/04 08:08:14;;;;;;;;;;;;;;;;;;5055658;28;20564;-75
2023/03/04 08:11:01;;;;;;;;;;;;;;;;;;5057791;28;19920;-75
2023/03/04 08:13:47;;;;;;;;;;;;;;;;;;5057045;28;19935;-75
2023/03/04 08:16:34;;;;;;;;;;;;;;;;;;5058582;28;20061;-75
2023/03/04 08:19:20;;;;;;;;;;;;;;;;;;5058210;28;19922;-75
2023/03/04 08:22:07;;;;;;;;;;;;;;;;;;5041001;28;19929;-75
2023/03/04 08:24:53;;;;;;;;;;;;;;;;;;5052470;28;19921;-75
2023/03/04 08:27:40;;;;;;;;;;;;;;;;;;5061637;28;19935;-74
2023/03/04 08:30:26;;;;;;;;;;;;;;;;;;5054862;28;19925;-75
2023/03/04 08:33:13;;;;;;;;;;;;;;;;;;5048274;28;19925;-75
2023/03/04 08:36:00;;;;;;;;;;;;;;;;;;5052407;28;19931;-75
2023/03/04 08:38:46;;;;;;;;;;;;;;;;;;5057059;28;19916;-75
2023/03/04 08:41:33;;;;;;;;;;;;;;;;;;5053781;28;20398;-75
2023/03/04 08:44:19;;;;;;;;;;;;;;;;;;5055864;28;19925;-75
2023/03/04 08:47:09;;;;;;;;;;;;;;;;;;5051500;28;19937;-76
2023/03/04 08:49:57;;;;;;;;;;;;;;;;;;5052425;28;20006;-75
2023/03/04 08:52:43;;;;;;;;;;;;;;;;;;5059683;28;19916;-77
2023/03/04 08:55:30;;;;;;;;;;;;;;;;;;5056192;28;19999;-77
2023/03/04 08:58:16;;;;;;;;;;;;;;;;;;5056153;28;19924;-77
2023/03/04 09:01:04;;;;;;;;;;;;;;;;;;5052325;28;19927;-77
2023/03/04 09:03:50;;;;;;;;;;;;;;;;;;5051765;28;19924;-78
2023/03/04 09:06:37;;;;;;;;;;;;;;;;;;5053400;28;19931;-78
2023/03/04 09:09:23;;;;;;;;;;;;;;;;;;5052198;28;19921;-78
2023/03/04 09:12:10;;;;;;;;;;;;;;;;;;5055093;28;21208;-77
2023/03/04 09:14:56;;;;;;;;;;;;;;;;;;5055701;28;19932;-77
2023/03/04 09:17:43;;;;;;;;;;;;;;;;;;5052980;28;19923;-77
2023/03/04 09:20:29;;;;;;;;;;;;;;;;;;5050386;28;19921;-77
2023/03/04 09:23:16;;;;;;;;;;;;;;;;;;5044100;28;19935;-77
2023/03/04 09:26:02;;;;;;;;;;;;;;;;;;5056492;28;19925;-76
2023/03/04 09:28:49;;;;;;;;;;;;;;;;;;5056191;28;19943;-77
2023/03/04 09:31:35;;;;;;;;;;;;;;;;;;5039904;28;19920;-77
2023/03/04 09:34:22;;;;;;;;;;;;;;;;;;5056063;28;19920;-78
2023/03/04 09:37:08;;;;;;;;;;;;;;;;;;5056943;28;19927;-76
2023/03/04 09:39:55;;;;;;;;;;;;;;;;;;5041346;28;19923;-76
2023/03/04 09:42:41;;;;;;;;;;;;;;;;;;5048543;28;19929;-76
2023/03/04 09:45:28;;;;;;;;;;;;;;;;;;5060214;28;19927;-76
2023/03/04 09:48:14;;;;;;;;;;;;;;;;;;5057489;28;20105;-76
2023/03/04 09:51:02;;;;;;;;;;;;;;;;;;5061197;28;20634;-77
2023/03/04 09:53:48;;;;;;;;;;;;;;;;;;5060395;28;19924;-80
2023/03/04 09:56:35;;;;;;;;;;;;;;;;;;5064057;28;19921;-78
2023/03/04 09:59:21;;;;;;;;;;;;;;;;;;5059532;28;19917;-78
2023/03/04 10:02:08;;;;;;;;;;;;;;;;;;5057141;28;20086;-77
2023/03/04 10:04:54;;;;;;;;;;;;;;;;;;5052316;28;19920;-77
2023/03/04 10:07:41;;;;;;;;;;;;;;;;;;5050477;28;19925;-76
2023/03/04 10:10:27;;;;;;;;;;;;;;;;;;5046633;28;19917;-76
2023/03/04 10:13:14;;;;;;;;;;;;;;;;;;5057825;28;21130;-80
2023/03/04 10:16:00;;;;;;;;;;;;;;;;;;5059227;28;19924;-81
2023/03/04 10:18:47;;;;;;;;;;;;;;;;;;5053866;28;20265;-80
2023/03/04 10:21:33;;;;;;;;;;;;;;;;;;5049883;28;19921;-80
2023/03/04 10:24:21;;;;;;;;;;;;;;;;;;5048021;28;19927;-80
2023/03/04 10:27:07;;;;;;;;;;;;;;;;;;5058733;28;19997;-80
2023/03/04 10:29:54;;;;;;;;;;;;;;;;;;5054617;28;20380;-79
2023/03/04 10:32:40;;;;;;;;;;;;;;;;;;5062169;28;19970;-80
2023/03/04 10:35:27;;;;;;;;;;;;;;;;;;5047026;28;19917;-81
2023/03/04 10:38:13;;;;;;;;;;;;;;;;;;5054820;28;20403;-80
2023/03/04 10:41:00;;;;;;;;;;;;;;;;;;5057321;28;20321;-79
2023/03/04 10:43:47;;;;;;;;;;;;;;;;;;5055552;28;19925;-79
2023/03/04 10:46:34;;;;;;;;;;;;;;;;;;5051583;28;19920;-80
2023/03/04 10:49:20;;;;;;;;;;;;;;;;;;5051875;28;19925;-79
2023/03/04 10:52:08;;;;;;;;;;;;;;;;;;5047785;28;20517;-82
2023/03/04 10:54:55;;;;;;;;;;;;;;;;;;5053119;28;19927;-79
2023/03/04 10:57:41;;;;;;;;;;;;;;;;;;5052622;28;19932;-80
2023/03/04 11:00:28;;;;;;;;;;;;;;;;;;5055441;28;19923;-80
2023/03/04 11:03:14;;;;;;;;;;;;;;;;;;5052653;28;19928;-80
2023/03/04 11:06:01;;;;;;;;;;;;;;;;;;5052719;28;19924;-80
2023/03/04 11:08:47;;;;;;;;;;;;;;;;;;5054485;28;19920;-80
2023/03/04 11:11:33;;;;;;;;;;;;;;;;;;5060321;28;19927;-80
2023/03/04 11:14:20;;;;;;;;;;;;;;;;;;5057762;28;19935;-81
2023/03/04 11:17:06;;;;;;;;;;;;;;;;;;5050907;28;19916;-80
2023/03/04 11:19:53;;;;;;;;;;;;;;;;;;5063088;28;20402;-80
2023/03/04 11:22:39;;;;;;;;;;;;;;;;;;5057608;28;19936;-81
2023/03/04 11:25:26;;;;;;;;;;;;;;;;;;5059429;28;19927;-80
2023/03/04 11:28:12;;;;;;;;;;;;;;;;;;5061083;28;19913;-80
2023/03/04 11:30:59;;;;;;;;;;;;;;;;;;5054310;28;19943;-80
2023/03/04 11:33:45;;;;;;;;;;;;;;;;;;5053013;28;20623;-80
2023/03/04 11:36:32;;;;;;;;;;;;;;;;;;5059217;28;19916;-80
2023/03/04 11:39:18;;;;;;;;;;;;;;;;;;5059825;28;19932;-81
2023/03/04 11:42:05;;;;;;;;;;;;;;;;;;5057105;28;20395;-80
2023/03/04 11:44:51;;;;;;;;;;;;;;;;;;5055628;28;19923;-80
2023/03/04 11:47:38;;;;;;;;;;;;;;;;;;5051016;28;19916;-80
2023/03/04 11:50:24;;;;;;;;;;;;;;;;;;5049728;28;19917;-80
2023/03/04 11:53:11;;;;;;;;;;;;;;;;;;5042211;28;19917;-80
2023/03/04 11:55:57;;;;;;;;;;;;;;;;;;5051227;28;20392;-80
2023/03/04 11:58:44;;;;;;;;;;;;;;;;;;5055722;28;19916;-80
2023/03/04 12:01:30;;;;;;;;;;;;;;;;;;5057328;28;20034;-80
2023/03/04 12:04:17;;;;;;;;;;;;;;;;;;5056472;28;19920;-79
2023/03/04 12:07:03;;;;;;;;;;;;;;;;;;5047027;28;19921;-80
2023/03/04 12:09:50;;;;;;;;;;;;;;;;;;5054284;28;19931;-80
2023/03/04 12:12:36;;;;;;;;;;;;;;;;;;5051140;28;19916;-79
2023/03/04 12:15:23;;;;;;;;;;;;;;;;;;5058187;28;20039;-79
2023/03/04 12:18:09;;;;;;;;;;;;;;;;;;5056647;28;19923;-79
2023/03/04 12:20:56;;;;;;;;;;;;;;;;;;5059381;28;20587;-79
2023/03/04 12:23:42;;;;;;;;;;;;;;;;;;5057267;28;19928;-78
2023/03/04 12:26:29;;;;;;;;;;;;;;;;;;5045734;28;19924;-81
2023/03/04 12:29:15;;;;;;;;;;;;;;;;;;5058921;28;19943;-79
2023/03/04 12:32:02;;;;;;;;;;;;;;;;;;5058109;28;20376;-79
2023/03/04 12:34:48;;;;;;;;;;;;;;;;;;5054948;28;19931;-79
2023/03/04 12:37:34;;;;;;;;;;;;;;;;;;5049960;28;19917;-80
2023/03/04 12:40:21;;;;;;;;;;;;;;;;;;5058065;28;20344;-79
2023/03/04 12:43:08;;;;;;;;;;;;;;;;;;5061251;28;19925;-80
2023/03/04 12:45:54;;;;;;;;;;;;;;;;;;5056282;28;20521;-79
2023/03/04 12:48:41;;;;;;;;;;;;;;;;;;5056339;28;19921;-80
2023/03/04 12:51:28;;;;;;;;;;;;;;;;;;5057586;28;19916;-79
2023/03/04 12:54:14;;;;;;;;;;;;;;;;;;5054990;28;19920;-80
2023/03/04 12:57:01;;;;;;;;;;;;;;;;;;5051914;28;20687;-79
2023/03/04 12:59:47;;;;;;;;;;;;;;;;;;5051938;28;19913;-79
2023/03/04 13:02:33;;;;;;;;;;;;;;;;;;5053395;28;19936;-79
2023/03/04 13:05:20;;;;;;;;;;;;;;;;;;5058745;28;19916;-79
2023/03/04 13:08:06;;;;;;;;;;;;;;;;;;5056851;28;20372;-80
2023/03/04 13:10:53;;;;;;;;;;;;;;;;;;5060039;28;19936;-80
2023/03/04 13:13:39;;;;;;;;;;;;;;;;;;5056187;28;19939;-80
2023/03/04 13:16:26;;;;;;;;;;;;;;;;;;5059858;28;19921;-81
2023/03/04 13:19:12;;;;;;;;;;;;;;;;;;5049256;28;19931;-81
2023/03/04 13:21:59;;;;;;;;;;;;;;;;;;5061302;28;19935;-79
2023/03/04 13:24:45;;;;;;;;;;;;;;;;;;5063775;28;19924;-80
2023/03/04 13:27:32;;;;;;;;;;;;;;;;;;5061397;28;19951;-79
2023/03/04 13:30:18;;;;;;;;;;;;;;;;;;5064310;28;19916;-80
2023/03/04 13:33:05;;;;;;;;;;;;;;;;;;5060756;28;19920;-79
2023/03/04 13:35:51;;;;;;;;;;;;;;;;;;5063198;28;19920;-80
2023/03/04 13:38:38;;;;;;;;;;;;;;;;;;5060307;28;20328;-80
2023/03/04 13:41:24;;;;;;;;;;;;;;;;;;5060177;28;19927;-80
2023/03/04 13:44:11;;;;;;;;;;;;;;;;;;5061889;28;19928;-80
2023/03/04 13:46:57;;;;;;;;;;;;;;;;;;5054181;28;19927;-79
2023/03/04 13:49:44;;;;;;;;;;;;;;;;;;5052728;28;19920;-80
2023/03/04 13:52:30;;;;;;;;;;;;;;;;;;5052412;28;20680;-80
2023/03/04 13:55:17;;;;;;;;;;;;;;;;;;5058779;28;19920;-79
2023/03/04 13:58:03;;;;;;;;;;;;;;;;;;5059563;28;20287;-80
2023/03/04 14:00:50;;;;;;;;;;;;;;;;;;5061699;28;19927;-81
2023/03/04 14:03:36;;;;;;;;;;;;;;;;;;5059882;28;19924;-85
2023/03/04 14:06:23;;;;;;;;;;;;;;;;;;5058377;28;19934;-80
2023/03/04 14:09:09;;;;;;;;;;;;;;;;;;5057743;28;19917;-81
2023/03/04 14:11:56;;;;;;;;;;;;;;;;;;5041012;28;20041;-80
2023/03/04 14:14:42;;;;;;;;;;;;;;;;;;5060188;28;19933;-81
2023/03/04 14:17:29;;;;;;;;;;;;;;;;;;5042877;28;19928;-80
2023/03/04 14:20:16;;;;;;;;;;;;;;;;;;5060605;28;20659;-81
2023/03/04 14:23:03;;;;;;;;;;;;;;;;;;5067000;28;19924;-80
2023/03/04 14:25:49;;;;;;;;;;;;;;;;;;5051527;28;19931;-84
2023/03/04 14:28:35;;;;;;;;;;;;;;;;;;5051514;28;19922;-83
2023/03/04 14:31:22;;;;;;;;;;;;;;;;;;5057392;28;19916;-83
2023/03/04 14:34:08;;;;;;;;;;;;;;;;;;5059348;28;19920;-82
2023/03/04 14:36:55;;;;;;;;;;;;;;;;;;5059642;28;19916;-81
2023/03/04 14:39:42;;;;;;;;;;;;;;;;;;5061110;28;20023;-82
2023/03/04 14:42:28;;;;;;;;;;;;;;;;;;5047807;28;20692;-84
2023/03/04 14:45:15;;;;;;;;;;;;;;;;;;5058414;28;19928;-82
2023/03/04 14:48:01;;;;;;;;;;;;;;;;;;5060595;28;19942;-81
2023/03/04 14:50:48;;;;;;;;;;;;;;;;;;5056265;28;20369;-83
2023/03/04 14:53:34;;;;;;;;;;;;;;;;;;5059083;28;20300;-80
2023/03/04 14:56:21;;;;;;;;;;;;;;;;;;5061398;28;19920;-80
2023/03/04 14:59:07;;;;;;;;;;;;;;;;;;5059164;28;19913;-80
2023/03/04 15:01:54;;;;;;;;;;;;;;;;;;5059459;28;20324;-82
2023/03/04 15:04:40;;;;;;;;;;;;;;;;;;5035564;28;19935;-81
2023/03/04 15:07:27;;;;;;;;;;;;;;;;;;5045206;28;19928;-81
2023/03/04 15:10:13;;;;;;;;;;;;;;;;;;5052978;28;20587;-81
2023/03/04 15:13:00;;;;;;;;;;;;;;;;;;5054545;28;20376;-79
2023/03/04 15:15:47;;;;;;;;;;;;;;;;;;5055975;28;19929;-81
2023/03/04 15:18:34;;;;;;;;;;;;;;;;;;5059213;28;19916;-80
2023/03/04 15:21:20;;;;;;;;;;;;;;;;;;5061230;28;19921;-80
2023/03/04 15:24:07;;;;;;;;;;;;;;;;;;5054494;28;19921;-81
2023/03/04 15:26:53;;;;;;;;;;;;;;;;;;5063219;28;19916;-82
2023/03/04 15:29:40;;;;;;;;;;;;;;;;;;5047864;28;19920;-82
2023/03/04 15:32:26;;;;;;;;;;;;;;;;;;5058550;28;19924;-81
2023/03/04 15:35:13;;;;;;;;;;;;;;;;;;5057734;28;19917;-81
2023/03/04 15:38:00;;;;;;;;;;;;;;;;;;5059308;28;20344;-81
2023/03/04 15:40:46;;;;;;;;;;;;;;;;;;5062930;28;19916;-81
2023/03/04 15:43:33;;;;;;;;;;;;;;;;;;5058792;28;19931;-81
2023/03/04 15:46:19;;;;;;;;;;;;;;;;;;5060709;28;19916;-82
2023/03/04 15:49:06;;;;;;;;;;;;;;;;;;5061256;28;20324;-81
2023/03/04 15:51:52;;;;;;;;;;;;;;;;;;5063286;28;19981;-80
2023/03/04 15:54:39;;;;;;;;;;;;;;;;;;5051988;28;19923;-81
2023/03/04 15:57:25;;;;;;;;;;;;;;;;;;5057011;28;19920;-83
2023/03/04 16:00:12;;;;;;;;;;;;;;;;;;5051953;28;19920;-82
2023/03/04 16:02:58;;;;;;;;;;;;;;;;;;5062822;28;19931;-82
2023/03/04 16:05:45;;;;;;;;;;;;;;;;;;5055518;28;19917;-82
2023/03/04 16:08:31;;;;;;;;;;;;;;;;;;5058788;28;19920;-82
2023/03/04 16:11:18;;;;;;;;;;;;;;;;;;5058425;28;19920;-81
2023/03/04 16:14:04;;;;;;;;;;;;;;;;;;5051041;28;19936;-81
2023/03/04 16:16:51;;;;;;;;;;;;;;;;;;5053868;28;19920;-81
2023/03/04 16:19:38;;;;;;;;;;;;;;;;;;5057176;28;19928;-83
2023/03/04 16:22:24;;;;;;;;;;;;;;;;;;5057551;28;19924;-80
2023/03/04 16:25:11;;;;;;;;;;;;;;;;;;5057500;28;19924;-82
2023/03/04 16:28:01;;;;;;;;;;;;;;;;;;5055367;28;19929;-81
2023/03/04 16:30:48;;;;;;;;;;;;;;;;;;5058651;28;19949;-81
2023/03/04 16:33:34;;;;;;;;;;;;;;;;;;5055282;28;19921;-78
2023/03/04 16:36:21;;;;;;;;;;;;;;;;;;5055020;28;19921;-80
2023/03/04 16:39:08;;;;;;;;;;;;;;;;;;5050201;28;20008;-81
2023/03/04 16:41:54;;;;;;;;;;;;;;;;;;5042012;28;19927;-77
2023/03/04 16:44:41;;;;;;;;;;;;;;;;;;5058197;28;19936;-81
2023/03/04 16:47:27;;;;;;;;;;;;;;;;;;5055813;28;19925;-81
2023/03/04 16:50:14;;;;;;;;;;;;;;;;;;5044436;28;19928;-82
2023/03/04 16:53:00;;;;;;;;;;;;;;;;;;5056688;28;19927;-81
2023/03/04 16:55:47;;;;;;;;;;;;;;;;;;5038052;28;19916;-81
2023/03/04 16:58:33;;;;;;;;;;;;;;;;;;5061962;28;19921;-82
2023/03/04 17:01:20;;;;;;;;;;;;;;;;;;5061244;28;19947;-81
2023/03/04 17:04:06;;;;;;;;;;;;;;;;;;5066072;28;20356;-83
2023/03/04 17:06:53;;;;;;;;;;;;;;;;;;5064573;28;19917;-83
2023/03/04 17:09:39;;;;;;;;;;;;;;;;;;5062241;28;20364;-81
2023/03/04 17:12:26;;;;;;;;;;;;;;;;;;5062643;28;19926;-81
2023/03/04 17:15:12;;;;;;;;;;;;;;;;;;5053094;28;19944;-83
2023/03/04 17:17:59;;;;;;;;;;;;;;;;;;5062909;28;19923;-82
2023/03/04 17:20:45;;;;;;;;;;;;;;;;;;5057940;28;19924;-82
2023/03/04 17:23:32;;;;;;;;;;;;;;;;;;5061648;28;20018;-81
2023/03/04 17:26:21;;;;;;;;;;;;;;;;;;5054435;28;20411;-82
2023/03/04 17:29:08;;;;;;;;;;;;;;;;;;5055731;28;19921;-80
2023/03/04 17:31:54;;;;;;;;;;;;;;;;;;5062775;28;19924;-77
2023/03/04 17:34:41;;;;;;;;;;;;;;;;;;5062872;28;19921;-81
2023/03/04 17:37:27;;;;;;;;;;;;;;;;;;5062478;28;20375;-81
2023/03/04 17:40:14;;;;;;;;;;;;;;;;;;5057999;28;19924;-81
2023/03/04 17:43:02;;;;;;;;;;;;;;;;;;5053826;28;19925;-81
2023/03/04 17:45:48;;;;;;;;;;;;;;;;;;5058267;28;20383;-81
2023/03/04 17:48:35;;;;;;;;;;;;;;;;;;5060811;28;19928;-81
2023/03/04 17:51:21;;;;;;;;;;;;;;;;;;5038057;28;19916;-82
2023/03/04 17:54:08;;;;;;;;;;;;;;;;;;5046803;28;19947;-81
2023/03/04 17:56:57;;;;;;;;;;;;;;;;;;5055313;28;20323;-83
2023/03/04 17:59:43;;;;;;;;;;;;;;;;;;5053956;28;19937;-80
2023/03/04 18:02:30;;;;;;;;;;;;;;;;;;5057843;28;19920;-80
2023/03/04 18:05:16;;;;;;;;;;;;;;;;;;5048031;28;19932;-80
2023/03/04 18:08:03;;;;;;;;;;;;;;;;;;5050561;28;19931;-80
2023/03/04 18:10:49;;;;;;;;;;;;;;;;;;5057914;28;19920;-79
2023/03/04 18:13:36;;;;;;;;;;;;;;;;;;5051464;28;19928;-78
2023/03/04 18:16:25;;;;;;;;;;;;;;;;;;5049115;28;19928;-80
2023/03/04 18:19:11;;;;;;;;;;;;;;;;;;5051454;28;19917;-79
2023/03/04 18:21:58;;;;;;;;;;;;;;;;;;5063762;28;19927;-79
2023/03/04 18:24:44;;;;;;;;;;;;;;;;;;5064528;28;19940;-79
2023/03/04 18:27:31;;;;;;;;;;;;;;;;;;5055478;28;19923;-79
2023/03/04 18:30:19;;;;;;;;;;;;;;;;;;5060260;28;19943;-79
2023/03/04 18:33:06;;;;;;;;;;;;;;;;;;5061696;28;20291;-79
2023/03/04 18:35:52;;;;;;;;;;;;;;;;;;5039169;28;19935;-80
2023/03/04 18:38:39;;;;;;;;;;;;;;;;;;5059609;28;20322;-79
2023/03/04 18:41:25;;;;;;;;;;;;;;;;;;5058746;28;19920;-81
2023/03/04 18:44:12;;;;;;;;;;;;;;;;;;5043513;28;20481;-79
2023/03/04 18:46:58;;;;;;;;;;;;;;;;;;5059142;28;19917;-80
2023/03/04 18:49:45;;;;;;;;;;;;;;;;;;5050899;28;19925;-80
2023/03/04 18:52:31;;;;;;;;;;;;;;;;;;5058209;28;19950;-80
2023/03/04 18:55:18;;;;;;;;;;;;;;;;;;5055556;28;19927;-78
2023/03/04 18:58:04;;;;;;;;;;;;;;;;;;5048697;28;19951;-80